TAF and METAR

Decoding for American and Canadian METARs and TAFs is not fully implemented.

Could not understand the following METAR

KBOS 292054Z 20012G25KT 10SM SCT029 BKN036 26/19 A2990 RMK AO2 PK WND 23028/2019 SLP126 T02610194 56015

TAF for Logan International Airport

KBOS 292033Z 2921/3024 22019G28KT P6SM BKN030 FM300000 20013G21KT P6SM OVC030 FM300400 20012G20KT 6SM BR OVC015 FM300900 21009KT 5SM BR OVC020 FM301400 24008KT P6SM BKN025 FM301600 24008KT P6SM BKN060
Report created 29. mai 22:33

between 29. mai 23:00 - 30. mai 02:00

wind 19 knots from SW (220°) with gusts up to 28 knots